Time;durP1;ratioP1;P1;durP2;ratioP2;P2;SDS_P1;SDS_P2;PMS_P1;PMS_P2;Temp;Humidity;BMP_temperature;BMP_pressure;BME280_temperature;BME280_humidity;BME280_pressure;Samples;Min_cycle;Max_cycle;Signal;HPM_P1;HPM_P2
2021/12/24 00:02:38;;;;;;;321.62;248.02;;;20.20;41.20;;;;;;4340825;60;21036;-34
2021/12/24 00:07:40;;;;;;;337.30;260.45;;;20.20;41.20;;;;;;4345895;60;21043;-34
2021/12/24 00:12:46;;;;;;;339.73;267.10;;;20.20;41.20;;;;;;4339093;64;21174;-35
2021/12/24 00:17:48;;;;;;;329.93;251.30;;;20.20;41.10;;;;;;4382550;60;21553;-34
2021/12/24 00:40:31;;;;;;;329.38;255.05;;;20.20;41.10;;;;;;4359625;60;21107;-35
2021/12/24 00:45:35;;;;;;;326.00;251.30;;;20.20;41.10;;;;;;4341564;60;21120;-33
2021/12/24 00:56:17;;;;;;;321.92;252.82;;;20.20;41.00;;;;;;4344606;60;21091;-35
2021/12/24 01:01:19;;;;;;;313.02;239.77;;;20.20;41.00;;;;;;4343391;60;21573;-35
2021/12/24 01:06:20;;;;;;;313.60;242.48;;;20.20;41.10;;;;;;4339184;64;21533;-34
2021/12/24 01:11:21;;;;;;;324.33;250.07;;;20.20;41.00;;;;;;4340208;60;21128;-36
2021/12/24 01:16:30;;;;;;;324.95;252.25;;;20.20;40.70;;;;;;4343574;60;21056;-38
2021/12/24 01:21:53;;;;;;;319.10;247.02;;;20.20;41.00;;;;;;4354676;60;21565;-35
2021/12/24 01:27:05;;;;;;;318.12;247.50;;;20.20;40.90;;;;;;4340060;60;21497;-36
2021/12/24 01:43:55;;;;;;;304.08;234.00;;;20.10;40.90;;;;;;4356007;60;21644;-34
2021/12/24 01:48:56;;;;;;;311.83;240.70;;;20.20;40.90;;;;;;4382351;60;21051;-33
2021/12/24 01:53:59;;;;;;;293.17;220.55;;;20.10;40.80;;;;;;4339011;64;21071;-35
2021/12/24 01:59:01;;;;;;;294.52;223.02;;;20.10;40.80;;;;;;4338938;60;21052;-33
2021/12/24 02:04:02;;;;;;;302.48;231.73;;;20.20;40.90;;;;;;4340540;60;21036;-32
2021/12/24 02:09:03;;;;;;;303.92;233.35;;;20.10;40.80;;;;;;4371605;60;21100;-34
2021/12/24 02:14:06;;;;;;;299.62;234.57;;;20.10;40.80;;;;;;4378681;60;21079;-34
2021/12/24 02:29:48;;;;;;;310.52;238.18;;;20.10;40.80;;;;;;4357601;60;21167;-36
2021/12/24 02:34:49;;;;;;;282.48;214.68;;;20.10;40.20;;;;;;4352806;60;21565;-34
2021/12/24 02:39:50;;;;;;;287.25;223.15;;;20.10;40.80;;;;;;4383666;60;21063;-34
2021/12/24 02:44:52;;;;;;;287.55;223.62;;;20.10;40.80;;;;;;4339234;60;21047;-35
2021/12/24 02:55:40;;;;;;;291.17;224.98;;;20.10;40.70;;;;;;4342015;60;21669;-34
2021/12/24 03:00:41;;;;;;;283.95;217.27;;;20.10;40.70;;;;;;4357191;60;21054;-36
2021/12/24 03:05:42;;;;;;;279.55;216.50;;;20.10;40.70;;;;;;4339052;64;21048;-36
2021/12/24 03:10:43;;;;;;;274.95;214.05;;;20.10;40.70;;;;;;4348920;60;21104;-34
2021/12/24 03:15:47;;;;;;;272.55;208.68;;;20.10;40.70;;;;;;4339011;64;21553;-34
2021/12/24 03:20:48;;;;;;;278.33;213.77;;;20.00;40.70;;;;;;4368671;60;21566;-36
2021/12/24 03:25:49;;;;;;;268.55;211.57;;;20.10;40.70;;;;;;4361566;60;21092;-35
2021/12/24 03:30:50;;;;;;;270.58;197.40;;;20.10;40.80;;;;;;4352974;60;21608;-37
2021/12/24 03:35:51;;;;;;;270.55;207.75;;;20.00;40.70;;;;;;4367541;60;21286;-35
2021/12/24 03:40:52;;;;;;;264.85;200.38;;;20.00;40.60;;;;;;4347444;60;21063;-32
2021/12/24 03:46:06;;;;;;;263.25;198.73;;;20.00;40.60;;;;;;4343936;60;21063;-35
2021/12/24 03:57:09;;;;;;;260.08;202.55;;;20.00;40.60;;;;;;4344846;60;21071;-33
2021/12/24 04:02:09;;;;;;;256.23;195.02;;;20.00;40.60;;;;;;4363415;60;21091;-35
2021/12/24 04:07:10;;;;;;;257.35;197.45;;;20.00;40.60;;;;;;4353439;60;21051;-35
2021/12/24 04:12:11;;;;;;;253.18;193.20;;;20.00;40.60;;;;;;4365006;60;21593;-34
2021/12/24 04:17:12;;;;;;;247.52;187.25;;;20.00;40.50;;;;;;4338953;60;21035;-29
2021/12/24 04:27:36;;;;;;;242.50;185.20;;;20.00;40.60;;;;;;4338793;60;21064;-35
2021/12/24 04:32:54;;;;;;;243.68;184.90;;;20.00;40.60;;;;;;4353650;60;21143;-36
2021/12/24 05:05:53;;;;;;;222.85;163.90;;;20.00;40.60;;;;;;4338708;64;21075;-34
2021/12/24 05:10:54;;;;;;;232.90;177.73;;;20.00;40.60;;;;;;4384601;60;22094;-34
2021/12/24 05:16:04;;;;;;;225.07;168.60;;;19.90;40.60;;;;;;4352981;60;21079;-31
2021/12/24 05:26:25;;;;;;;217.77;163.68;;;20.00;40.70;;;;;;4338632;60;21071;-36
2021/12/24 05:31:28;;;;;;;226.85;170.02;;;19.90;40.70;;;;;;4339521;61;21056;-33
2021/12/24 05:36:29;;;;;;;214.95;158.63;;;20.00;40.80;;;;;;4361235;60;22231;-36
2021/12/24 05:41:30;;;;;;;213.93;160.27;;;19.90;40.80;;;;;;4363825;60;21116;-30
2021/12/24 05:46:31;;;;;;;215.32;161.73;;;19.90;40.90;;;;;;4371826;60;21099;-34
2021/12/24 05:51:33;;;;;;;214.18;157.20;;;19.90;41.00;;;;;;4374676;60;21064;-33
2021/12/24 05:56:34;;;;;;;212.55;156.68;;;19.90;41.70;;;;;;4338796;64;21538;-32
2021/12/24 06:01:35;;;;;;;205.12;152.87;;;19.90;41.10;;;;;;4367881;60;21075;-33
2021/12/24 06:06:35;;;;;;;212.35;156.55;;;19.90;41.20;;;;;;4367929;60;21043;-33
2021/12/24 06:11:37;;;;;;;202.87;149.60;;;19.90;41.20;;;;;;4358050;60;21116;-34
2021/12/24 06:16:47;;;;;;;208.90;153.52;;;19.90;41.30;;;;;;4363908;60;21083;-34
2021/12/24 06:21:50;;;;;;;204.80;150.95;;;19.90;41.40;;;;;;4373701;60;21628;-34
2021/12/24 06:26:51;;;;;;;194.68;146.93;;;19.90;41.30;;;;;;4352565;60;21092;-35
2021/12/24 06:31:54;;;;;;;195.93;147.65;;;19.90;41.40;;;;;;4346354;60;21064;-34
2021/12/24 06:36:55;;;;;;;192.77;144.07;;;19.90;41.40;;;;;;4357061;60;21063;-35
2021/12/24 06:41:56;;;;;;;195.43;146.55;;;19.90;41.40;;;;;;4338748;64;21093;-37
2021/12/24 06:46:57;;;;;;;196.40;145.87;;;19.90;41.40;;;;;;4339077;64;21096;-35
2021/12/24 06:51:58;;;;;;;193.15;146.45;;;19.90;41.40;;;;;;4341136;60;21055;-35
2021/12/24 06:56:59;;;;;;;190.05;140.55;;;19.90;41.40;;;;;;4364097;60;21164;-34
2021/12/24 07:02:00;;;;;;;194.98;148.73;;;19.90;41.40;;;;;;4380472;60;21058;-31
2021/12/24 07:07:01;;;;;;;195.05;145.20;;;19.90;41.40;;;;;;4338644;64;21621;-35
2021/12/24 07:12:03;;;;;;;191.30;144.75;;;19.80;41.30;;;;;;4343679;60;21140;-32
2021/12/24 07:17:04;;;;;;;188.82;141.35;;;19.80;41.30;;;;;;4343253;60;21039;-34
2021/12/24 07:22:07;;;;;;;189.20;146.07;;;19.90;41.40;;;;;;4359515;60;21055;-32
2021/12/24 07:27:08;;;;;;;190.23;143.52;;;19.80;41.50;;;;;;4341867;60;21509;-35
2021/12/24 07:32:09;;;;;;;182.68;137.68;;;19.80;41.30;;;;;;4355747;60;21119;-35
2021/12/24 07:37:10;;;;;;;188.32;138.90;;;19.80;41.30;;;;;;4341208;60;21076;-36
2021/12/24 07:42:11;;;;;;;189.75;141.55;;;19.80;41.30;;;;;;4339701;64;21108;-35
2021/12/24 07:47:18;;;;;;;184.77;138.52;;;19.80;41.30;;;;;;4339824;60;21092;-36
2021/12/24 07:52:20;;;;;;;195.07;143.95;;;19.80;41.40;;;;;;4347474;60;21561;-36
2021/12/24 07:57:22;;;;;;;183.45;136.27;;;19.80;41.40;;;;;;4354295;60;21677;-36
2021/12/24 08:02:26;;;;;;;191.55;141.98;;;19.80;41.30;;;;;;4338260;64;21066;-33
2021/12/24 08:07:27;;;;;;;189.65;139.50;;;19.80;41.40;;;;;;4341396;60;21585;-35
2021/12/24 08:12:28;;;;;;;189.62;143.45;;;19.80;41.40;;;;;;4341306;60;21163;-34
2021/12/24 08:17:29;;;;;;;187.18;142.00;;;19.80;41.40;;;;;;4369241;60;21063;-34
2021/12/24 08:22:30;;;;;;;194.62;144.62;;;19.80;41.40;;;;;;4362882;60;21211;-35
2021/12/24 08:27:31;;;;;;;185.48;138.80;;;19.80;41.40;;;;;;4356791;60;21557;-35
2021/12/24 08:32:36;;;;;;;190.90;144.50;;;19.80;41.40;;;;;;4350533;60;21468;-32
2021/12/24 08:37:38;;;;;;;192.57;147.85;;;19.90;41.60;;;;;;4338257;64;21637;-33
2021/12/24 08:42:39;;;;;;;196.10;147.52;;;19.90;41.80;;;;;;4342825;60;21097;-33
2021/12/24 08:47:40;;;;;;;192.30;144.18;;;20.00;41.90;;;;;;4343367;60;21063;-31
2021/12/24 08:52:44;;;;;;;192.25;144.37;;;20.00;41.90;;;;;;4357897;60;21096;-33
2021/12/24 08:57:45;;;;;;;201.02;147.75;;;20.10;42.10;;;;;;4345107;60;21606;-30
2021/12/24 09:02:47;;;;;;;200.35;147.07;;;20.10;42.10;;;;;;4358942;60;21170;-35
2021/12/24 09:07:48;;;;;;;196.73;144.90;;;20.10;42.20;;;;;;4341295;60;21549;-34
2021/12/24 09:12:52;;;;;;;202.02;147.85;;;20.10;42.30;;;;;;4379257;60;21091;-35
2021/12/24 09:17:53;;;;;;;209.43;154.55;;;20.20;42.40;;;;;;4345523;60;21578;-34
2021/12/24 09:22:55;;;;;;;208.48;151.90;;;20.20;42.50;;;;;;4374869;60;21121;-35
2021/12/24 09:27:58;;;;;;;207.12;152.45;;;20.20;42.50;;;;;;4352624;60;21477;-36
2021/12/24 09:32:59;;;;;;;200.15;144.37;;;20.20;42.60;;;;;;4338630;64;21095;-34
2021/12/24 09:38:01;;;;;;;207.70;154.15;;;20.20;42.70;;;;;;4352373;60;21081;-33
2021/12/24 09:43:02;;;;;;;205.73;153.87;;;20.20;42.70;;;;;;4349984;60;21192;-34
2021/12/24 09:48:04;;;;;;;204.32;153.93;;;20.30;42.90;;;;;;4352006;60;21071;-32
2021/12/24 09:53:04;;;;;;;213.57;158.77;;;20.30;43.00;;;;;;4339770;64;21048;-33
2021/12/24 09:58:05;;;;;;;214.80;156.87;;;20.30;43.30;;;;;;4348876;60;21140;-36
2021/12/24 10:03:06;;;;;;;214.93;159.93;;;20.30;43.00;;;;;;4358710;60;21184;-32
2021/12/24 10:08:14;;;;;;;205.75;150.32;;;20.30;43.00;;;;;;4351492;60;21090;-34
2021/12/24 10:13:44;;;;;;;207.90;152.20;;;20.30;43.00;;;;;;4351926;60;21112;-34
2021/12/24 10:18:51;;;;;;;212.52;156.73;;;20.30;43.00;;;;;;4337782;64;21553;-34
2021/12/24 10:24:30;;;;;;;212.32;158.05;;;20.30;43.00;;;;;;4368259;60;21143;-31
2021/12/24 10:29:41;;;;;;;220.93;160.70;;;20.40;43.10;;;;;;4369166;60;22447;-36
2021/12/24 10:34:44;;;;;;;207.57;156.68;;;20.40;43.00;;;;;;4348691;60;21689;-37
2021/12/24 10:39:57;;;;;;;216.98;159.10;;;20.40;43.00;;;;;;4356796;60;21119;-34
2021/12/24 10:45:00;;;;;;;213.35;159.65;;;20.40;43.10;;;;;;4343621;60;21160;-36
2021/12/24 10:50:30;;;;;;;210.10;157.73;;;20.40;43.00;;;;;;4359596;60;21055;-36
2021/12/24 10:55:38;;;;;;;224.23;166.93;;;20.40;43.00;;;;;;4352159;60;21621;-34
2021/12/24 11:00:43;;;;;;;215.50;163.45;;;20.40;43.30;;;;;;4349757;60;21104;-35
2021/12/24 11:05:46;;;;;;;210.18;160.85;;;20.40;43.40;;;;;;4395245;60;21626;-35
2021/12/24 11:10:58;;;;;;;212.95;161.88;;;20.30;43.40;;;;;;4352841;60;21107;-34
2021/12/24 11:16:02;;;;;;;221.60;166.37;;;20.30;43.50;;;;;;4350626;60;21146;-32
2021/12/24 11:21:07;;;;;;;207.98;157.27;;;20.30;43.60;;;;;;4350284;60;21640;-35
2021/12/24 11:26:19;;;;;;;210.25;160.77;;;20.30;43.60;;;;;;4346544;60;21172;-35
2021/12/24 11:31:24;;;;;;;213.98;161.40;;;20.20;43.60;;;;;;4350886;60;21151;-36
2021/12/24 11:36:27;;;;;;;210.68;158.18;;;20.20;43.70;;;;;;4375084;60;21120;-36
2021/12/24 11:41:31;;;;;;;213.32;160.48;;;20.20;43.70;;;;;;4338811;64;21201;-37
2021/12/24 11:46:37;;;;;;;213.05;161.02;;;20.30;43.80;;;;;;4342895;60;21059;-35
2021/12/24 11:51:40;;;;;;;215.02;162.40;;;20.20;43.90;;;;;;4342175;60;21143;-33
2021/12/24 11:56:48;;;;;;;213.43;160.65;;;20.20;43.90;;;;;;4352782;60;21543;-33
2021/12/24 12:01:49;;;;;;;209.93;158.85;;;20.20;43.90;;;;;;4389335;60;21530;-40
2021/12/24 12:06:51;;;;;;;212.45;159.75;;;20.20;44.00;;;;;;4339175;64;21075;-34
2021/12/24 12:12:01;;;;;;;211.20;158.40;;;20.20;44.00;;;;;;4338696;60;21062;-34
2021/12/24 12:17:06;;;;;;;209.23;158.52;;;20.20;44.00;;;;;;4356960;60;21059;-33
2021/12/24 12:23:26;;;;;;;215.98;164.57;;;20.10;44.00;;;;;;4338309;64;21637;-32
2021/12/24 12:28:28;;;;;;;209.50;163.60;;;20.20;44.10;;;;;;4339081;61;21131;-32
2021/12/24 12:33:34;;;;;;;211.12;162.82;;;20.10;44.10;;;;;;4338474;64;21740;-31
2021/12/24 12:38:40;;;;;;;216.00;163.07;;;20.10;44.10;;;;;;4343833;60;21513;-35
2021/12/24 12:43:42;;;;;;;212.52;162.00;;;20.10;44.70;;;;;;4354044;60;21097;-34
2021/12/24 12:48:49;;;;;;;212.00;161.62;;;20.10;44.20;;;;;;4338324;64;21039;-33
2021/12/24 12:53:51;;;;;;;209.25;161.60;;;20.10;44.10;;;;;;4371424;60;21545;-34
2021/12/24 12:59:07;;;;;;;210.90;160.20;;;20.10;44.20;;;;;;4361216;60;22262;-35
2021/12/24 13:04:10;;;;;;;215.75;165.73;;;20.10;44.20;;;;;;4390473;60;21028;-36
2021/12/24 13:09:33;;;;;;;209.57;158.85;;;20.10;44.30;;;;;;4359020;60;21626;-36
2021/12/24 13:14:36;;;;;;;211.87;160.48;;;20.10;44.30;;;;;;4367488;60;21115;-37
2021/12/24 13:25:40;;;;;;;210.35;161.02;;;20.10;44.30;;;;;;4338990;60;21138;-33
2021/12/24 13:30:41;;;;;;;207.48;158.85;;;20.00;44.30;;;;;;4340039;60;21164;-32
2021/12/24 13:35:44;;;;;;;208.50;159.15;;;20.10;44.30;;;;;;4338984;61;21096;-35
2021/12/24 13:40:46;;;;;;;214.82;164.65;;;20.00;44.30;;;;;;4354490;60;21059;-37
2021/12/24 13:45:50;;;;;;;212.07;160.88;;;20.00;44.30;;;;;;4358876;60;21067;-35
2021/12/24 13:56:48;;;;;;;206.85;158.48;;;20.00;44.40;;;;;;4344068;60;21035;-38
2021/12/24 14:01:50;;;;;;;214.82;166.62;;;20.10;44.50;;;;;;4343966;60;21549;-36
2021/12/24 14:06:55;;;;;;;216.40;167.32;;;20.00;44.50;;;;;;4339171;64;21108;-36
2021/12/24 14:11:56;;;;;;;212.77;161.23;;;20.00;44.40;;;;;;4353803;60;21112;-34
2021/12/24 14:17:32;;;;;;;213.60;163.30;;;20.00;44.60;;;;;;4364849;60;21044;-33
2021/12/24 14:22:34;;;;;;;218.18;168.55;;;20.00;44.50;;;;;;4350407;60;21621;-32
2021/12/24 14:27:38;;;;;;;211.25;163.73;;;20.00;44.60;;;;;;4354267;60;21700;-45
2021/12/24 14:32:44;;;;;;;212.00;164.55;;;20.00;44.50;;;;;;4339203;61;21059;-36
2021/12/24 14:38:45;;;;;;;206.20;158.98;;;20.00;44.50;;;;;;4363090;60;21062;-29
2021/12/24 14:43:48;;;;;;;216.40;170.00;;;20.00;44.60;;;;;;4338371;64;21581;-33
2021/12/24 14:48:49;;;;;;;218.60;170.80;;;20.00;44.60;;;;;;4368362;60;21607;-36
2021/12/24 14:53:52;;;;;;;217.60;168.45;;;20.00;44.60;;;;;;4367372;60;21039;-35
2021/12/24 14:59:01;;;;;;;217.90;168.90;;;20.00;44.70;;;;;;4338275;64;21615;-33
2021/12/24 15:04:04;;;;;;;220.60;170.75;;;20.00;44.70;;;;;;4359817;60;21822;-36
2021/12/24 15:09:39;;;;;;;219.55;171.25;;;20.00;44.70;;;;;;4352523;60;21067;-32
2021/12/24 15:14:41;;;;;;;221.60;170.95;;;20.00;44.70;;;;;;4350763;60;21529;-35
2021/12/24 15:19:42;;;;;;;221.93;168.52;;;20.00;44.80;;;;;;4349556;60;22393;-35
2021/12/24 15:24:42;;;;;;;225.98;169.48;;;20.00;44.70;;;;;;4344796;60;21123;-36
2021/12/24 15:29:46;;;;;;;227.20;175.52;;;20.00;45.40;;;;;;4344446;60;21517;-35
2021/12/24 15:34:47;;;;;;;216.38;166.02;;;20.00;45.50;;;;;;4360729;60;21052;-36
2021/12/24 15:39:48;;;;;;;226.52;175.80;;;20.00;44.80;;;;;;4341718;60;21557;-37
2021/12/24 15:44:50;;;;;;;228.57;178.40;;;20.00;44.90;;;;;;4350653;60;21071;-35
2021/12/24 15:49:51;;;;;;;225.27;176.80;;;20.00;44.90;;;;;;4373072;60;21623;-38
2021/12/24 15:54:52;;;;;;;227.18;172.65;;;20.00;44.90;;;;;;4341289;60;21135;-31
2021/12/24 15:59:53;;;;;;;224.12;174.75;;;20.00;44.90;;;;;;4337445;62;21067;-34
2021/12/24 16:04:54;;;;;;;224.68;178.32;;;20.00;44.90;;;;;;4348019;60;21234;-36
2021/12/24 16:09:55;;;;;;;224.50;176.80;;;20.00;44.90;;;;;;4354609;60;21123;-36
2021/12/24 16:14:58;;;;;;;227.18;179.50;;;20.00;45.00;;;;;;4348093;60;21039;-36
2021/12/24 16:19:59;;;;;;;231.40;182.68;;;20.00;44.90;;;;;;4359520;60;21565;-35
2021/12/24 16:24:59;;;;;;;222.48;176.00;;;20.00;45.00;;;;;;4339531;60;21082;-35
2021/12/24 16:30:05;;;;;;;225.27;174.85;;;19.90;45.00;;;;;;4351961;60;21056;-36
2021/12/24 16:35:12;;;;;;;226.73;180.23;;;20.00;45.00;;;;;;4359829;60;21059;-34
2021/12/24 16:40:18;;;;;;;225.45;175.12;;;19.90;45.00;;;;;;4348351;60;21059;-35
2021/12/24 16:45:28;;;;;;;240.32;184.75;;;20.00;45.00;;;;;;4370718;60;21589;-34
2021/12/24 16:50:29;;;;;;;222.02;174.87;;;20.00;45.10;;;;;;4358186;60;21119;-35
2021/12/24 16:55:30;;;;;;;239.07;189.05;;;20.00;45.00;;;;;;4356959;60;21123;-30
2021/12/24 17:00:35;;;;;;;234.85;186.90;;;20.00;45.10;;;;;;4344144;60;21210;-36
2021/12/24 17:05:36;;;;;;;231.87;184.68;;;20.00;45.10;;;;;;4353923;60;21127;-37
2021/12/24 17:10:38;;;;;;;228.70;184.37;;;20.00;45.10;;;;;;4374520;60;21680;-35
2021/12/24 17:15:40;;;;;;;232.73;184.55;;;20.00;45.20;;;;;;4374535;60;21095;-35
2021/12/24 17:20:41;;;;;;;225.73;184.52;;;20.00;45.20;;;;;;4349584;60;21119;-33
2021/12/24 17:25:42;;;;;;;239.80;189.60;;;20.00;45.10;;;;;;4338834;64;21464;-35
2021/12/24 17:30:49;;;;;;;238.82;185.40;;;20.00;45.20;;;;;;4346953;60;21096;-36
2021/12/24 17:35:50;;;;;;;241.80;189.13;;;19.90;45.20;;;;;;4339132;64;21672;-36
2021/12/24 17:40:54;;;;;;;237.82;189.85;;;20.00;45.30;;;;;;4358523;60;21075;-29
2021/12/24 17:45:55;;;;;;;238.62;188.43;;;19.90;45.20;;;;;;4343055;60;21533;-36
2021/12/24 17:50:56;;;;;;;240.65;191.25;;;19.90;45.20;;;;;;4339526;60;21076;-36
2021/12/24 17:55:57;;;;;;;234.27;187.75;;;20.00;45.30;;;;;;4338844;61;21889;-36
2021/12/24 18:00:58;;;;;;;238.95;193.43;;;19.90;45.30;;;;;;4352169;60;21589;-37
2021/12/24 18:06:00;;;;;;;239.23;192.77;;;19.90;45.20;;;;;;4338089;64;21071;-34
2021/12/24 18:11:01;;;;;;;240.35;194.27;;;19.90;45.30;;;;;;4339026;64;21593;-36
2021/12/24 18:16:03;;;;;;;239.60;194.32;;;19.90;45.30;;;;;;4383644;60;21071;-36
2021/12/24 18:21:03;;;;;;;242.27;192.27;;;19.90;45.30;;;;;;4342392;60;21139;-35
2021/12/24 18:26:07;;;;;;;242.00;195.95;;;19.90;45.30;;;;;;4357803;60;21577;-37
2021/12/24 18:31:09;;;;;;;244.00;198.60;;;20.00;45.40;;;;;;4342462;60;21047;-26
2021/12/24 18:36:13;;;;;;;246.55;198.27;;;19.90;45.40;;;;;;4339086;64;21063;-35
2021/12/24 18:41:17;;;;;;;242.55;195.27;;;20.00;45.60;;;;;;4341000;60;22458;-35
2021/12/24 18:46:23;;;;;;;244.43;198.18;;;19.90;45.40;;;;;;4352966;60;21673;-35
2021/12/24 18:51:24;;;;;;;249.07;199.12;;;19.90;45.40;;;;;;4343678;60;21521;-34
2021/12/24 18:56:25;;;;;;;241.48;197.98;;;20.00;45.40;;;;;;4361420;60;21078;-34
2021/12/24 19:01:26;;;;;;;247.80;201.40;;;19.90;45.40;;;;;;4368554;60;21626;-37
2021/12/24 19:06:27;;;;;;;247.90;198.35;;;19.90;45.50;;;;;;4366906;60;21530;-35
2021/12/24 19:11:28;;;;;;;254.18;204.95;;;19.90;45.40;;;;;;4356327;60;21039;-33
2021/12/24 19:16:28;;;;;;;246.23;196.77;;;19.90;45.50;;;;;;4348469;60;21067;-38
2021/12/24 19:21:29;;;;;;;243.95;199.77;;;19.90;45.50;;;;;;4347124;60;21171;-33
2021/12/24 19:26:30;;;;;;;246.37;202.35;;;19.90;45.50;;;;;;4350055;60;21136;-34
2021/12/24 19:31:31;;;;;;;245.88;199.20;;;19.90;45.60;;;;;;4391249;60;21063;-33
2021/12/24 19:36:32;;;;;;;254.23;205.30;;;19.90;45.60;;;;;;4344497;60;21079;-36
2021/12/24 19:41:33;;;;;;;247.32;205.43;;;19.90;45.60;;;;;;4362903;60;21076;-34
2021/12/24 19:46:34;;;;;;;244.10;197.50;;;19.90;45.60;;;;;;4351756;60;21135;-33
2021/12/24 19:51:35;;;;;;;245.00;196.55;;;19.90;45.60;;;;;;4347592;60;21109;-36
2021/12/24 19:56:37;;;;;;;251.62;206.95;;;19.90;45.60;;;;;;4351090;60;21159;-34
2021/12/24 20:01:38;;;;;;;251.80;206.95;;;19.90;45.70;;;;;;4372758;60;21100;-35
2021/12/24 20:06:39;;;;;;;249.70;207.48;;;19.90;45.70;;;;;;4338520;64;21059;-35
2021/12/24 20:11:40;;;;;;;243.20;198.15;;;19.90;45.60;;;;;;4352395;60;21171;-36
2021/12/24 20:16:44;;;;;;;249.70;203.88;;;19.90;45.60;;;;;;4372914;60;21096;-33
2021/12/24 20:21:46;;;;;;;246.48;202.75;;;19.90;45.60;;;;;;4347276;60;21635;-35
2021/12/24 20:26:48;;;;;;;246.65;206.57;;;19.90;45.60;;;;;;4349758;60;21815;-35
2021/12/24 20:31:49;;;;;;;240.50;198.82;;;19.90;45.60;;;;;;4363966;60;21047;-35
2021/12/24 20:36:49;;;;;;;243.32;201.57;;;19.90;45.60;;;;;;4355546;60;21051;-36
2021/12/24 20:41:51;;;;;;;241.57;202.00;;;19.90;45.70;;;;;;4344802;60;21067;-35
2021/12/24 20:46:52;;;;;;;242.70;201.35;;;19.90;45.60;;;;;;4343219;60;21584;-35
2021/12/24 20:51:54;;;;;;;234.40;194.55;;;19.90;45.60;;;;;;4338683;64;21052;-34
2021/12/24 20:56:56;;;;;;;242.27;202.73;;;19.90;45.60;;;;;;4364414;60;21544;-35
2021/12/24 21:01:57;;;;;;;243.18;200.50;;;19.90;45.70;;;;;;4356174;60;21099;-33
2021/12/24 21:06:58;;;;;;;243.55;204.10;;;19.90;45.60;;;;;;4349559;60;21537;-37
2021/12/24 21:12:00;;;;;;;232.07;188.48;;;19.90;45.60;;;;;;4351050;60;21520;-31
2021/12/24 21:17:02;;;;;;;234.23;190.52;;;19.90;45.70;;;;;;4339463;60;21678;-34
2021/12/24 21:22:03;;;;;;;243.82;200.27;;;19.90;45.60;;;;;;4338466;64;21146;-35
2021/12/24 21:27:04;;;;;;;230.50;191.12;;;19.90;45.60;;;;;;4357931;60;21076;-33
2021/12/24 21:32:06;;;;;;;236.95;192.62;;;19.90;45.60;;;;;;4339195;60;21115;-34
2021/12/24 21:37:07;;;;;;;230.95;190.98;;;19.80;45.60;;;;;;4339615;60;21932;-36
2021/12/24 21:42:09;;;;;;;229.68;193.48;;;19.90;45.60;;;;;;4371645;60;21068;-34
2021/12/24 21:47:10;;;;;;;231.43;189.73;;;19.90;45.60;;;;;;4359814;60;21176;-35
2021/12/24 21:52:11;;;;;;;231.13;187.32;;;19.90;45.60;;;;;;4353479;60;21055;-36
2021/12/24 21:57:12;;;;;;;231.18;191.50;;;19.80;45.60;;;;;;4345799;60;21090;-29
2021/12/24 22:02:13;;;;;;;229.38;189.95;;;19.90;45.60;;;;;;4371465;60;21036;-33
2021/12/24 22:12:35;;;;;;;226.43;186.52;;;19.80;45.50;;;;;;4338347;60;21163;-34
2021/12/24 22:17:36;;;;;;;226.75;188.07;;;19.80;45.50;;;;;;4374157;60;21079;-35
2021/12/24 22:22:37;;;;;;;226.85;188.05;;;19.80;45.60;;;;;;4338321;64;21183;-37
2021/12/24 22:27:39;;;;;;;233.90;190.45;;;19.80;45.50;;;;;;4338789;64;21063;-33
2021/12/24 22:32:46;;;;;;;219.50;181.45;;;19.80;45.50;;;;;;4347283;60;21028;-35
2021/12/24 22:37:47;;;;;;;221.23;183.30;;;19.80;45.50;;;;;;4348654;60;21091;-33
2021/12/24 22:42:48;;;;;;;213.77;177.43;;;19.80;45.50;;;;;;4349130;60;21360;-34
2021/12/24 22:47:49;;;;;;;217.07;179.77;;;19.80;45.50;;;;;;4341845;60;21521;-37
2021/12/24 22:52:52;;;;;;;211.57;174.52;;;19.80;45.50;;;;;;4387856;60;21055;-37
2021/12/24 22:57:57;;;;;;;208.75;171.35;;;19.80;45.50;;;;;;4346913;60;22226;-32
2021/12/24 23:02:59;;;;;;;216.05;179.40;;;19.80;45.40;;;;;;4356027;60;21525;-34
2021/12/24 23:07:59;;;;;;;209.25;174.62;;;19.80;45.50;;;;;;4380501;60;21043;-31
2021/12/24 23:13:00;;;;;;;200.23;163.37;;;19.80;45.40;;;;;;4339154;61;21354;-34
2021/12/24 23:18:01;;;;;;;209.48;174.45;;;19.80;45.40;;;;;;4352637;60;21107;-32
2021/12/24 23:23:02;;;;;;;214.18;175.27;;;19.80;45.50;;;;;;4345781;60;21558;-36
2021/12/24 23:28:04;;;;;;;200.20;161.05;;;19.80;45.40;;;;;;4346405;60;21059;-36
2021/12/24 23:33:05;;;;;;;208.15;170.57;;;19.80;45.40;;;;;;4343054;60;21032;-37
2021/12/24 23:38:06;;;;;;;197.45;163.20;;;19.80;45.50;;;;;;4377603;60;21064;-36
2021/12/24 23:43:20;;;;;;;194.90;157.48;;;19.80;45.40;;;;;;4342488;60;21546;-34
2021/12/24 23:48:22;;;;;;;199.52;162.65;;;19.80;45.40;;;;;;4347678;60;21064;-36
2021/12/24 23:53:26;;;;;;;190.88;159.15;;;19.80;45.40;;;;;;4356184;60;21063;-35
2021/12/24 23:58:29;;;;;;;195.12;160.45;;;19.80;45.40;;;;;;4388654;60;21159;-32
